GLO2408 SBPS-SBSP
Flight info
| Callsign | GLO2408 |
|---|---|
| Flight time | 1h 52m |
| Altitude | 34000 |
| Route | EDRAG DCT POSMU DCT MIMIP UZ30 ENTIT |
| Aircraft | B738/M-SDE2E3FGHIRWXY/LB1 |
Departure
| Time | 2026-04-25 21:51 |
|---|---|
| Airport | Porto Seguro International Airport (SBPS) |
Arrival
| Time | 2026-04-25 23:43 |
|---|---|
| Airport | Congonhas–Deputado Freitas Nobre Airport (SBSP) |
| Time | Latitude | Longitude | Altitude | Speed | Heading |
|---|---|---|---|---|---|
| 2026-04-25 21:35 | -16.44065 | -39.08131 | 159 ft | 0 kts | 164° |
| 2026-04-25 21:41 | -16.44060 | -39.08132 | 159 ft | 2 kts | 165° |
| 2026-04-25 21:42 | -16.44044 | -39.08136 | 159 ft | 2 kts | 165° |
| 2026-04-25 21:42 | -16.44028 | -39.08142 | 159 ft | 2 kts | 114° |
| 2026-04-25 21:42 | -16.44029 | -39.08159 | 159 ft | 2 kts | 73° |
| 2026-04-25 21:42 | -16.44031 | -39.08166 | 159 ft | 0 kts | 73° |
| 2026-04-25 21:46 | -16.44028 | -39.08156 | 159 ft | 4 kts | 77° |
| 2026-04-25 21:46 | -16.44008 | -39.08113 | 159 ft | 8 kts | 24° |
| 2026-04-25 21:46 | -16.43968 | -39.08121 | 159 ft | 6 kts | 344° |
| 2026-04-25 21:46 | -16.43955 | -39.08125 | 159 ft | 0 kts | 345° |
| 2026-04-25 21:47 | -16.43952 | -39.08126 | 159 ft | 3 kts | 344° |
| 2026-04-25 21:47 | -16.43904 | -39.08140 | 159 ft | 9 kts | 343° |
| 2026-04-25 21:48 | -16.43879 | -39.08192 | 159 ft | 9 kts | 256° |
| 2026-04-25 21:48 | -16.43898 | -39.08262 | 158 ft | 14 kts | 255° |
| 2026-04-25 21:48 | -16.43937 | -39.08408 | 157 ft | 27 kts | 254° |
| 2026-04-25 21:48 | -16.43998 | -39.08632 | 158 ft | 34 kts | 255° |
| 2026-04-25 21:49 | -16.44056 | -39.08852 | 159 ft | 23 kts | 255° |
| 2026-04-25 21:49 | -16.44065 | -39.08962 | 159 ft | 7 kts | 292° |
| 2026-04-25 21:49 | -16.44073 | -39.08987 | 159 ft | 2 kts | 200° |
| 2026-04-25 21:49 | -16.44085 | -39.08981 | 159 ft | 3 kts | 143° |
| 2026-04-25 21:50 | -16.44086 | -39.08958 | 159 ft | 4 kts | 76° |
| 2026-04-25 21:50 | -16.44081 | -39.08939 | 159 ft | 0 kts | 75° |
| 2026-04-25 21:50 | -16.44072 | -39.08905 | 160 ft | 25 kts | 73° |
| 2026-04-25 21:50 | -16.44005 | -39.08660 | 158 ft | 80 kts | 74° |
| 2026-04-25 21:51 | -16.43690 | -39.07476 | 220 ft | 164 kts | 75° |
| 2026-04-25 21:51 | -16.43368 | -39.06289 | 957 ft | 166 kts | 75° |
| 2026-04-25 21:51 | -16.43062 | -39.05118 | 1797 ft | 173 kts | 75° |
| 2026-04-25 21:51 | -16.42783 | -39.03870 | 2324 ft | 192 kts | 91° |
| 2026-04-25 21:52 | -16.43312 | -39.02545 | 2554 ft | 216 kts | 135° |
| 2026-04-25 21:52 | -16.44735 | -39.01887 | 2807 ft | 237 kts | 176° |
| 2026-04-25 21:52 | -16.46422 | -39.01979 | 3208 ft | 253 kts | 183° |
| 2026-04-25 21:52 | -16.48241 | -39.02115 | 3683 ft | 267 kts | 182° |
| 2026-04-25 21:53 | -16.50101 | -39.02220 | 4502 ft | 269 kts | 182° |
| 2026-04-25 21:53 | -16.51975 | -39.02294 | 5342 ft | 271 kts | 181° |
| 2026-04-25 21:53 | -16.53867 | -39.02342 | 6156 ft | 273 kts | 181° |
| 2026-04-25 21:53 | -16.55772 | -39.02373 | 6927 ft | 275 kts | 181° |
| 2026-04-25 21:54 | -16.57673 | -39.02397 | 7645 ft | 279 kts | 181° |
| 2026-04-25 21:54 | -16.59627 | -39.02419 | 8371 ft | 283 kts | 181° |
| 2026-04-25 21:54 | -16.61597 | -39.02597 | 9073 ft | 287 kts | 198° |
| 2026-04-25 21:54 | -16.63336 | -39.03588 | 9821 ft | 288 kts | 223° |
| 2026-04-25 21:55 | -16.64693 | -39.05133 | 10409 ft | 295 kts | 231° |
| 2026-04-25 21:55 | -16.66034 | -39.06873 | 10575 ft | 318 kts | 232° |
| 2026-04-25 21:55 | -16.67424 | -39.08723 | 11025 ft | 329 kts | 232° |
| 2026-04-25 21:55 | -16.68847 | -39.10617 | 11653 ft | 333 kts | 232° |
| 2026-04-25 21:56 | -16.70269 | -39.12497 | 12310 ft | 336 kts | 232° |
| 2026-04-25 21:56 | -16.71253 | -39.13791 | 12754 ft | 338 kts | 232° |
| 2026-04-25 21:56 | -16.73208 | -39.16349 | 13583 ft | 343 kts | 231° |
| 2026-04-25 21:56 | -16.74709 | -39.18306 | 14146 ft | 347 kts | 231° |
| 2026-04-25 21:57 | -16.76226 | -39.20283 | 14662 ft | 351 kts | 231° |
| 2026-04-25 21:57 | -16.77763 | -39.22285 | 15181 ft | 355 kts | 231° |
| 2026-04-25 21:57 | -16.79316 | -39.24306 | 15695 ft | 359 kts | 231° |
| 2026-04-25 21:57 | -16.80886 | -39.26352 | 16215 ft | 362 kts | 231° |
| 2026-04-25 21:58 | -16.82447 | -39.28386 | 16712 ft | 366 kts | 231° |
| 2026-04-25 21:58 | -16.84047 | -39.30470 | 17209 ft | 370 kts | 231° |
| 2026-04-25 21:58 | -16.85661 | -39.32574 | 17691 ft | 374 kts | 231° |
| 2026-04-25 21:58 | -16.87213 | -39.34763 | 18159 ft | 378 kts | 240° |
| 2026-04-25 21:59 | -16.88102 | -39.37361 | 18573 ft | 383 kts | 257° |
| 2026-04-25 21:59 | -16.88618 | -39.40091 | 19060 ft | 384 kts | 258° |
| 2026-04-25 21:59 | -16.89096 | -39.42840 | 19506 ft | 386 kts | 259° |
| 2026-04-25 22:00 | -16.90087 | -39.48379 | 20389 ft | 391 kts | 258° |
| 2026-04-25 22:00 | -16.90604 | -39.51138 | 20838 ft | 393 kts | 257° |
| 2026-04-25 22:00 | -16.91134 | -39.53943 | 21270 ft | 395 kts | 257° |
| 2026-04-25 22:00 | -16.91667 | -39.56757 | 21704 ft | 397 kts | 257° |
| 2026-04-25 22:01 | -16.92202 | -39.59593 | 22146 ft | 399 kts | 257° |
| 2026-04-25 22:01 | -16.92740 | -39.62448 | 22573 ft | 401 kts | 257° |
| 2026-04-25 22:01 | -16.93278 | -39.65310 | 22999 ft | 403 kts | 257° |
| 2026-04-25 22:01 | -16.93453 | -39.66242 | 23138 ft | 404 kts | 257° |
| 2026-04-25 22:02 | -16.94364 | -39.71092 | 23790 ft | 408 kts | 257° |
| 2026-04-25 22:02 | -16.94903 | -39.73968 | 24130 ft | 410 kts | 257° |
| 2026-04-25 22:02 | -16.95452 | -39.76897 | 24470 ft | 412 kts | 257° |
| 2026-04-25 22:02 | -16.96002 | -39.79834 | 24805 ft | 414 kts | 257° |
| 2026-04-25 22:03 | -16.96556 | -39.82794 | 25135 ft | 416 kts | 257° |
| 2026-04-25 22:03 | -16.97112 | -39.85770 | 25466 ft | 418 kts | 257° |
| 2026-04-25 22:03 | -16.97679 | -39.88744 | 25776 ft | 419 kts | 255° |
| 2026-04-25 22:03 | -16.98746 | -39.91570 | 26046 ft | 419 kts | 237° |
| 2026-04-25 22:04 | -17.00421 | -39.94055 | 26399 ft | 419 kts | 232° |
| 2026-04-25 22:04 | -17.02155 | -39.96461 | 26706 ft | 421 kts | 232° |
| 2026-04-25 22:04 | -17.03935 | -39.98900 | 26988 ft | 424 kts | 232° |
| 2026-04-25 22:04 | -17.05728 | -40.01359 | 27277 ft | 426 kts | 232° |
| 2026-04-25 22:05 | -17.07519 | -40.03833 | 27576 ft | 428 kts | 232° |
| 2026-04-25 22:05 | -17.09311 | -40.06325 | 27879 ft | 430 kts | 232° |
| 2026-04-25 22:05 | -17.11106 | -40.08836 | 28171 ft | 432 kts | 232° |
| 2026-04-25 22:05 | -17.12902 | -40.11357 | 28454 ft | 434 kts | 232° |
| 2026-04-25 22:06 | -17.14704 | -40.13893 | 28746 ft | 435 kts | 233° |
| 2026-04-25 22:06 | -17.16491 | -40.16411 | 29013 ft | 437 kts | 233° |
| 2026-04-25 22:06 | -17.18304 | -40.18968 | 29299 ft | 439 kts | 233° |
| 2026-04-25 22:06 | -17.20123 | -40.21534 | 29560 ft | 441 kts | 233° |
| 2026-04-25 22:07 | -17.21953 | -40.24117 | 29801 ft | 443 kts | 233° |
| 2026-04-25 22:07 | -17.23172 | -40.25837 | 29967 ft | 444 kts | 233° |
| 2026-04-25 22:07 | -17.25638 | -40.29319 | 30267 ft | 446 kts | 233° |
| 2026-04-25 22:07 | -17.27488 | -40.31932 | 30498 ft | 448 kts | 233° |
| 2026-04-25 22:08 | -17.29341 | -40.34549 | 30708 ft | 449 kts | 233° |
| 2026-04-25 22:08 | -17.31203 | -40.37182 | 30930 ft | 450 kts | 233° |
| 2026-04-25 22:08 | -17.33046 | -40.39788 | 31142 ft | 452 kts | 233° |
| 2026-04-25 22:08 | -17.34918 | -40.42435 | 31360 ft | 453 kts | 233° |
| 2026-04-25 22:09 | -17.36792 | -40.45087 | 31576 ft | 454 kts | 233° |
| 2026-04-25 22:09 | -17.38674 | -40.47750 | 31764 ft | 455 kts | 233° |
| 2026-04-25 22:09 | -17.40556 | -40.50416 | 31959 ft | 457 kts | 233° |
| 2026-04-25 22:09 | -17.42446 | -40.53094 | 32176 ft | 458 kts | 233° |
| 2026-04-25 22:10 | -17.43702 | -40.54873 | 32291 ft | 459 kts | 233° |
| 2026-04-25 22:10 | -17.45601 | -40.57565 | 32489 ft | 460 kts | 233° |
| 2026-04-25 22:10 | -17.47500 | -40.60258 | 32713 ft | 460 kts | 233° |
| 2026-04-25 22:10 | -17.50009 | -40.63819 | 33132 ft | 457 kts | 233° |
| 2026-04-25 22:11 | -17.51892 | -40.66492 | 33438 ft | 456 kts | 233° |
| 2026-04-25 22:11 | -17.53775 | -40.69166 | 33700 ft | 455 kts | 233° |
| 2026-04-25 22:11 | -17.55653 | -40.71833 | 33931 ft | 455 kts | 233° |
| 2026-04-25 22:11 | -17.56898 | -40.73602 | 34005 ft | 455 kts | 233° |
| 2026-04-25 22:12 | -17.60667 | -40.78961 | 34009 ft | 456 kts | 233° |
| 2026-04-25 22:12 | -17.63788 | -40.83402 | 34003 ft | 455 kts | 233° |
| 2026-04-25 22:13 | -17.68163 | -40.89632 | 34007 ft | 453 kts | 233° |
| 2026-04-25 22:13 | -17.71868 | -40.94914 | 34009 ft | 452 kts | 233° |
| 2026-04-25 22:14 | -17.75590 | -41.00222 | 34007 ft | 451 kts | 233° |
| 2026-04-25 22:14 | -17.79308 | -41.05529 | 34014 ft | 452 kts | 233° |
| 2026-04-25 22:15 | -17.83031 | -41.10849 | 34015 ft | 452 kts | 233° |
| 2026-04-25 22:16 | -17.88595 | -41.18805 | 34018 ft | 453 kts | 233° |
| 2026-04-25 22:16 | -17.92325 | -41.24145 | 34016 ft | 454 kts | 233° |
| 2026-04-25 22:17 | -17.96062 | -41.29499 | 34020 ft | 455 kts | 233° |
| 2026-04-25 22:17 | -17.99803 | -41.34863 | 34025 ft | 456 kts | 233° |
| 2026-04-25 22:18 | -18.03523 | -41.40202 | 34023 ft | 456 kts | 233° |
| 2026-04-25 22:18 | -18.07267 | -41.45579 | 34019 ft | 456 kts | 233° |
| 2026-04-25 22:19 | -18.11013 | -41.50964 | 34018 ft | 456 kts | 233° |
| 2026-04-25 22:19 | -18.14748 | -41.56338 | 34019 ft | 455 kts | 233° |
| 2026-04-25 22:20 | -18.18458 | -41.61679 | 34015 ft | 455 kts | 233° |
| 2026-04-25 22:20 | -18.22184 | -41.67048 | 34010 ft | 454 kts | 233° |
| 2026-04-25 22:21 | -18.25907 | -41.72417 | 34016 ft | 454 kts | 233° |
| 2026-04-25 22:21 | -18.29621 | -41.77777 | 34004 ft | 453 kts | 233° |
| 2026-04-25 22:22 | -18.33302 | -41.83095 | 34006 ft | 452 kts | 233° |
| 2026-04-25 22:22 | -18.37002 | -41.88444 | 34002 ft | 452 kts | 233° |
| 2026-04-25 22:23 | -18.40693 | -41.93786 | 34004 ft | 451 kts | 233° |
| 2026-04-25 22:23 | -18.44384 | -41.99131 | 34009 ft | 451 kts | 233° |
| 2026-04-25 22:24 | -18.48069 | -42.04472 | 34008 ft | 450 kts | 234° |
| 2026-04-25 22:24 | -18.51720 | -42.09769 | 34010 ft | 450 kts | 233° |
| 2026-04-25 22:25 | -18.55400 | -42.15111 | 34011 ft | 450 kts | 234° |
| 2026-04-25 22:25 | -18.59070 | -42.20445 | 34011 ft | 450 kts | 234° |
| 2026-04-25 22:26 | -18.62744 | -42.25788 | 34016 ft | 450 kts | 234° |
| 2026-04-25 22:26 | -18.66391 | -42.31096 | 34016 ft | 450 kts | 234° |
| 2026-04-25 22:27 | -18.70061 | -42.36444 | 34025 ft | 450 kts | 234° |
| 2026-04-25 22:27 | -18.73733 | -42.41798 | 34031 ft | 451 kts | 234° |
| 2026-04-25 22:28 | -18.76804 | -42.47542 | 34024 ft | 451 kts | 249° |
| 2026-04-25 22:28 | -18.78833 | -42.53806 | 34036 ft | 451 kts | 251° |
| 2026-04-25 22:29 | -18.80796 | -42.60054 | 34038 ft | 452 kts | 251° |
| 2026-04-25 22:29 | -18.82803 | -42.66339 | 34037 ft | 452 kts | 251° |
| 2026-04-25 22:30 | -18.85849 | -42.75760 | 34035 ft | 452 kts | 250° |
| 2026-04-25 22:30 | -18.87539 | -42.80978 | 34041 ft | 452 kts | 250° |
| 2026-04-25 22:31 | -18.89904 | -42.88290 | 34044 ft | 452 kts | 250° |
| 2026-04-25 22:31 | -18.91932 | -42.94573 | 34037 ft | 452 kts | 250° |
| 2026-04-25 22:32 | -18.93952 | -43.00841 | 34035 ft | 451 kts | 250° |
| 2026-04-25 22:32 | -18.95962 | -43.07084 | 34037 ft | 451 kts | 250° |
| 2026-04-25 22:33 | -18.97977 | -43.13350 | 34039 ft | 450 kts | 250° |
| 2026-04-25 22:33 | -18.99987 | -43.19610 | 34044 ft | 450 kts | 250° |
| 2026-04-25 22:34 | -19.01991 | -43.25860 | 34044 ft | 449 kts | 250° |
| 2026-04-25 22:34 | -19.03992 | -43.32108 | 34047 ft | 449 kts | 250° |
| 2026-04-25 22:35 | -19.05989 | -43.38352 | 34055 ft | 448 kts | 250° |
| 2026-04-25 22:35 | -19.07969 | -43.44550 | 34059 ft | 448 kts | 250° |
| 2026-04-25 22:36 | -19.09959 | -43.50789 | 34059 ft | 448 kts | 250° |
| 2026-04-25 22:36 | -19.11949 | -43.57034 | 34054 ft | 448 kts | 250° |
| 2026-04-25 22:37 | -19.13935 | -43.63277 | 34062 ft | 448 kts | 250° |
| 2026-04-25 22:37 | -19.15905 | -43.69473 | 34061 ft | 448 kts | 250° |
| 2026-04-25 22:38 | -19.17889 | -43.75727 | 34055 ft | 449 kts | 250° |
| 2026-04-25 22:38 | -19.19875 | -43.81990 | 34052 ft | 449 kts | 250° |
| 2026-04-25 22:39 | -19.21856 | -43.88248 | 34053 ft | 449 kts | 251° |
| 2026-04-25 22:39 | -19.23836 | -43.94513 | 34048 ft | 449 kts | 251° |
| 2026-04-25 22:40 | -19.25801 | -44.00738 | 34046 ft | 449 kts | 251° |
| 2026-04-25 22:40 | -19.27748 | -44.06912 | 34043 ft | 449 kts | 251° |
| 2026-04-25 22:41 | -19.29722 | -44.13181 | 34041 ft | 449 kts | 251° |
| 2026-04-25 22:41 | -19.31692 | -44.19446 | 34042 ft | 449 kts | 251° |
| 2026-04-25 22:42 | -19.33660 | -44.25712 | 34043 ft | 449 kts | 251° |
| 2026-04-25 22:42 | -19.35613 | -44.31939 | 34048 ft | 449 kts | 251° |
| 2026-04-25 22:43 | -19.37577 | -44.38211 | 34041 ft | 449 kts | 251° |
| 2026-04-25 22:43 | -19.39539 | -44.44483 | 34043 ft | 448 kts | 251° |
| 2026-04-25 22:44 | -19.41498 | -44.50754 | 34037 ft | 449 kts | 251° |
| 2026-04-25 22:44 | -19.43456 | -44.57030 | 34036 ft | 449 kts | 251° |
| 2026-04-25 22:45 | -19.45396 | -44.63260 | 34038 ft | 448 kts | 251° |
| 2026-04-25 22:45 | -19.47348 | -44.69535 | 34035 ft | 448 kts | 251° |
| 2026-04-25 22:46 | -19.49298 | -44.75811 | 34036 ft | 448 kts | 251° |
| 2026-04-25 22:46 | -19.51246 | -44.82089 | 34028 ft | 448 kts | 251° |
| 2026-04-25 22:47 | -19.53947 | -44.88003 | 34038 ft | 446 kts | 234° |
| 2026-04-25 22:47 | -19.58180 | -44.92723 | 34039 ft | 446 kts | 219° |
| 2026-04-25 22:48 | -19.63034 | -44.96828 | 34033 ft | 446 kts | 219° |
| 2026-04-25 22:48 | -19.67890 | -45.00938 | 34032 ft | 447 kts | 219° |
| 2026-04-25 22:49 | -19.72715 | -45.05092 | 34030 ft | 447 kts | 219° |
| 2026-04-25 22:49 | -19.77533 | -45.09265 | 34035 ft | 447 kts | 219° |
| 2026-04-25 22:50 | -19.82317 | -45.13410 | 34035 ft | 447 kts | 219° |
| 2026-04-25 22:50 | -19.87133 | -45.17582 | 34033 ft | 447 kts | 219° |
| 2026-04-25 22:51 | -19.91946 | -45.21754 | 34036 ft | 446 kts | 219° |
| 2026-04-25 22:51 | -19.96755 | -45.25927 | 34036 ft | 446 kts | 219° |
| 2026-04-25 22:52 | -20.01560 | -45.30100 | 34034 ft | 446 kts | 219° |
| 2026-04-25 22:52 | -20.05548 | -45.33567 | 34034 ft | 446 kts | 219° |
| 2026-04-25 22:53 | -20.11127 | -45.38420 | 34034 ft | 445 kts | 219° |
| 2026-04-25 22:53 | -20.15915 | -45.42588 | 34036 ft | 445 kts | 220° |
| 2026-04-25 22:54 | -20.20706 | -45.46763 | 34031 ft | 445 kts | 220° |
| 2026-04-25 22:54 | -20.25460 | -45.50910 | 34037 ft | 444 kts | 220° |
| 2026-04-25 22:55 | -20.30236 | -45.55080 | 34030 ft | 444 kts | 220° |
| 2026-04-25 22:55 | -20.35013 | -45.59254 | 34031 ft | 444 kts | 220° |
| 2026-04-25 22:56 | -20.39781 | -45.63423 | 34030 ft | 443 kts | 220° |
| 2026-04-25 22:56 | -20.44551 | -45.67599 | 34029 ft | 443 kts | 220° |
| 2026-04-25 22:57 | -20.49282 | -45.71745 | 34028 ft | 443 kts | 220° |
| 2026-04-25 22:57 | -20.54039 | -45.75918 | 34028 ft | 443 kts | 220° |
| 2026-04-25 22:58 | -20.58797 | -45.80095 | 34026 ft | 443 kts | 220° |
| 2026-04-25 22:58 | -20.63555 | -45.84274 | 34027 ft | 443 kts | 220° |
| 2026-04-25 22:59 | -20.68305 | -45.88452 | 34029 ft | 442 kts | 220° |
| 2026-04-25 22:59 | -20.73022 | -45.92602 | 34026 ft | 442 kts | 220° |
| 2026-04-25 23:00 | -20.77773 | -45.96782 | 34016 ft | 442 kts | 220° |
| 2026-04-25 23:00 | -20.82515 | -46.00958 | 34031 ft | 442 kts | 220° |
| 2026-04-25 23:01 | -20.87257 | -46.05138 | 34038 ft | 442 kts | 220° |
| 2026-04-25 23:01 | -20.91994 | -46.09319 | 34027 ft | 442 kts | 220° |
| 2026-04-25 23:02 | -20.96828 | -46.13375 | 34029 ft | 442 kts | 213° |
| 2026-04-25 23:02 | -21.02377 | -46.16106 | 34040 ft | 444 kts | 199° |
| 2026-04-25 23:03 | -21.08276 | -46.18106 | 34040 ft | 445 kts | 199° |
| 2026-04-25 23:03 | -21.14156 | -46.20159 | 34027 ft | 445 kts | 200° |
| 2026-04-25 23:04 | -21.19049 | -46.21882 | 34035 ft | 445 kts | 199° |
| 2026-04-25 23:04 | -21.25910 | -46.24206 | 34030 ft | 445 kts | 199° |
| 2026-04-25 23:05 | -21.31817 | -46.26203 | 34039 ft | 445 kts | 199° |
| 2026-04-25 23:05 | -21.37725 | -46.28212 | 34039 ft | 445 kts | 199° |
| 2026-04-25 23:06 | -21.43623 | -46.30223 | 34043 ft | 445 kts | 200° |
| 2026-04-25 23:06 | -21.49521 | -46.32236 | 34043 ft | 444 kts | 200° |
| 2026-04-25 23:07 | -21.55407 | -46.34247 | 34059 ft | 444 kts | 200° |
| 2026-04-25 23:07 | -21.61251 | -46.36244 | 34055 ft | 443 kts | 200° |
| 2026-04-25 23:08 | -21.67117 | -46.38261 | 34061 ft | 442 kts | 200° |
| 2026-04-25 23:08 | -21.72945 | -46.40386 | 34057 ft | 442 kts | 201° |
| 2026-04-25 23:09 | -21.78755 | -46.42542 | 34059 ft | 441 kts | 201° |
| 2026-04-25 23:09 | -21.84519 | -46.44671 | 34063 ft | 441 kts | 201° |
| 2026-04-25 23:10 | -21.90284 | -46.46791 | 34049 ft | 434 kts | 201° |
| 2026-04-25 23:10 | -21.95968 | -46.48882 | 34056 ft | 430 kts | 201° |
| 2026-04-25 23:11 | -21.98806 | -46.49927 | 33808 ft | 431 kts | 201° |
| 2026-04-25 23:11 | -22.01621 | -46.50964 | 33485 ft | 425 kts | 201° |
| 2026-04-25 23:11 | -22.04405 | -46.51989 | 33030 ft | 421 kts | 202° |
| 2026-04-25 23:11 | -22.07170 | -46.53008 | 32617 ft | 417 kts | 202° |
| 2026-04-25 23:12 | -22.09909 | -46.54018 | 32193 ft | 415 kts | 202° |
| 2026-04-25 23:12 | -22.12625 | -46.55020 | 31770 ft | 412 kts | 202° |
| 2026-04-25 23:12 | -22.15330 | -46.56019 | 31351 ft | 410 kts | 202° |
| 2026-04-25 23:12 | -22.17989 | -46.57001 | 30931 ft | 408 kts | 202° |
| 2026-04-25 23:13 | -22.20668 | -46.57991 | 30510 ft | 407 kts | 202° |
| 2026-04-25 23:13 | -22.23342 | -46.58980 | 30064 ft | 405 kts | 202° |
| 2026-04-25 23:13 | -22.25998 | -46.59962 | 29609 ft | 403 kts | 202° |
| 2026-04-25 23:13 | -22.28644 | -46.60941 | 29145 ft | 400 kts | 202° |
| 2026-04-25 23:14 | -22.31274 | -46.61914 | 28701 ft | 398 kts | 202° |
| 2026-04-25 23:14 | -22.33882 | -46.62880 | 28272 ft | 395 kts | 202° |
| 2026-04-25 23:14 | -22.36471 | -46.63839 | 27847 ft | 392 kts | 202° |
| 2026-04-25 23:14 | -22.39045 | -46.64792 | 27428 ft | 390 kts | 202° |
| 2026-04-25 23:15 | -22.41520 | -46.65843 | 26996 ft | 385 kts | 212° |
| 2026-04-25 23:15 | -22.43641 | -46.67548 | 26609 ft | 378 kts | 225° |
| 2026-04-25 23:15 | -22.45534 | -46.69498 | 26212 ft | 376 kts | 226° |
| 2026-04-25 23:15 | -22.47420 | -46.71465 | 25797 ft | 378 kts | 226° |
| 2026-04-25 23:16 | -22.49339 | -46.73437 | 25365 ft | 382 kts | 225° |
| 2026-04-25 23:16 | -22.51279 | -46.75404 | 24938 ft | 382 kts | 225° |
| 2026-04-25 23:16 | -22.53314 | -46.77247 | 24596 ft | 381 kts | 216° |
| 2026-04-25 23:16 | -22.55610 | -46.78633 | 24407 ft | 376 kts | 206° |
| 2026-04-25 23:17 | -22.58071 | -46.79590 | 24189 ft | 377 kts | 200° |
| 2026-04-25 23:17 | -22.60601 | -46.80404 | 23874 ft | 382 kts | 199° |
| 2026-04-25 23:17 | -22.63168 | -46.81203 | 23509 ft | 384 kts | 199° |
| 2026-04-25 23:17 | -22.65696 | -46.81987 | 23116 ft | 383 kts | 199° |
| 2026-04-25 23:18 | -22.68244 | -46.82783 | 22746 ft | 380 kts | 199° |
| 2026-04-25 23:18 | -22.70778 | -46.83583 | 22399 ft | 378 kts | 199° |
| 2026-04-25 23:18 | -22.73296 | -46.84384 | 22034 ft | 376 kts | 199° |
| 2026-04-25 23:18 | -22.75796 | -46.85183 | 21693 ft | 373 kts | 199° |
| 2026-04-25 23:19 | -22.78202 | -46.85956 | 21366 ft | 371 kts | 199° |
| 2026-04-25 23:19 | -22.80669 | -46.86750 | 21028 ft | 369 kts | 199° |
| 2026-04-25 23:19 | -22.83127 | -46.87542 | 20694 ft | 367 kts | 199° |
| 2026-04-25 23:19 | -22.85572 | -46.88330 | 20360 ft | 366 kts | 199° |
| 2026-04-25 23:20 | -22.88008 | -46.89115 | 20036 ft | 364 kts | 199° |
| 2026-04-25 23:20 | -22.90399 | -46.89887 | 19710 ft | 363 kts | 199° |
| 2026-04-25 23:20 | -22.92813 | -46.90666 | 19376 ft | 362 kts | 199° |
| 2026-04-25 23:20 | -22.95226 | -46.91445 | 19041 ft | 361 kts | 199° |
| 2026-04-25 23:21 | -22.97629 | -46.92221 | 18700 ft | 360 kts | 199° |
| 2026-04-25 23:21 | -23.00022 | -46.92994 | 18378 ft | 359 kts | 199° |
| 2026-04-25 23:21 | -23.02418 | -46.93768 | 17999 ft | 359 kts | 199° |
| 2026-04-25 23:21 | -23.04807 | -46.94541 | 17657 ft | 357 kts | 199° |
| 2026-04-25 23:22 | -23.07176 | -46.95306 | 17313 ft | 353 kts | 199° |
| 2026-04-25 23:22 | -23.09519 | -46.96064 | 16986 ft | 349 kts | 199° |
| 2026-04-25 23:22 | -23.11837 | -46.96814 | 16657 ft | 346 kts | 199° |
| 2026-04-25 23:23 | -23.16371 | -46.98282 | 16031 ft | 339 kts | 199° |
| 2026-04-25 23:23 | -23.18621 | -46.99011 | 15726 ft | 336 kts | 199° |
| 2026-04-25 23:23 | -23.20848 | -46.99733 | 15416 ft | 333 kts | 199° |
| 2026-04-25 23:24 | -23.22080 | -47.00132 | 15251 ft | 332 kts | 199° |
| 2026-04-25 23:24 | -23.24284 | -47.00846 | 14941 ft | 329 kts | 199° |
| 2026-04-25 23:24 | -23.26474 | -47.01558 | 14636 ft | 328 kts | 199° |
| 2026-04-25 23:24 | -23.28656 | -47.02266 | 14335 ft | 326 kts | 198° |
| 2026-04-25 23:25 | -23.30825 | -47.02971 | 14012 ft | 325 kts | 198° |
| 2026-04-25 23:25 | -23.32986 | -47.03672 | 13699 ft | 323 kts | 198° |
| 2026-04-25 23:25 | -23.35133 | -47.04368 | 13381 ft | 321 kts | 198° |
| 2026-04-25 23:25 | -23.37236 | -47.05052 | 13073 ft | 319 kts | 198° |
| 2026-04-25 23:26 | -23.39372 | -47.05678 | 12760 ft | 318 kts | 189° |
| 2026-04-25 23:26 | -23.41576 | -47.05529 | 12469 ft | 320 kts | 165° |
| 2026-04-25 23:26 | -23.43561 | -47.04433 | 12181 ft | 324 kts | 142° |
| 2026-04-25 23:26 | -23.45063 | -47.02601 | 11902 ft | 328 kts | 125° |
| 2026-04-25 23:27 | -23.46303 | -47.00512 | 11612 ft | 330 kts | 123° |
| 2026-04-25 23:27 | -23.47515 | -46.98381 | 11298 ft | 331 kts | 122° |
| 2026-04-25 23:27 | -23.48725 | -46.96249 | 10984 ft | 330 kts | 123° |
| 2026-04-25 23:27 | -23.49936 | -46.94133 | 10684 ft | 327 kts | 123° |
| 2026-04-25 23:28 | -23.51128 | -46.92069 | 10364 ft | 317 kts | 123° |
| 2026-04-25 23:28 | -23.52289 | -46.90069 | 10087 ft | 308 kts | 123° |
| 2026-04-25 23:28 | -23.53396 | -46.88167 | 10000 ft | 292 kts | 123° |
| 2026-04-25 23:28 | -23.54491 | -46.86289 | 9578 ft | 295 kts | 123° |
| 2026-04-25 23:29 | -23.55585 | -46.84413 | 9313 ft | 292 kts | 123° |
| 2026-04-25 23:29 | -23.56791 | -46.82655 | 9097 ft | 286 kts | 141° |
| 2026-04-25 23:29 | -23.58407 | -46.81446 | 9099 ft | 279 kts | 149° |
| 2026-04-25 23:29 | -23.60043 | -46.80336 | 9089 ft | 277 kts | 149° |
| 2026-04-25 23:30 | -23.61699 | -46.79205 | 9104 ft | 282 kts | 149° |
| 2026-04-25 23:30 | -23.63366 | -46.78057 | 9107 ft | 284 kts | 149° |
| 2026-04-25 23:30 | -23.65030 | -46.76908 | 9097 ft | 282 kts | 149° |
| 2026-04-25 23:30 | -23.66682 | -46.75764 | 9082 ft | 280 kts | 149° |
| 2026-04-25 23:31 | -23.68297 | -46.74644 | 9079 ft | 269 kts | 149° |
| 2026-04-25 23:31 | -23.69817 | -46.73589 | 9072 ft | 254 kts | 149° |
| 2026-04-25 23:31 | -23.71301 | -46.72559 | 8826 ft | 247 kts | 150° |
| 2026-04-25 23:31 | -23.72722 | -46.71528 | 8469 ft | 245 kts | 146° |
| 2026-04-25 23:32 | -23.74258 | -46.70705 | 7716 ft | 261 kts | 172° |
| 2026-04-25 23:32 | -23.76043 | -46.70464 | 7604 ft | 261 kts | 177° |
| 2026-04-25 23:32 | -23.77887 | -46.70306 | 7402 ft | 269 kts | 178° |
| 2026-04-25 23:32 | -23.79769 | -46.70159 | 7216 ft | 274 kts | 178° |
| 2026-04-25 23:33 | -23.81678 | -46.70014 | 7048 ft | 276 kts | 178° |
| 2026-04-25 23:33 | -23.83594 | -46.69871 | 6917 ft | 276 kts | 178° |
| 2026-04-25 23:33 | -23.85512 | -46.69728 | 6815 ft | 276 kts | 178° |
| 2026-04-25 23:33 | -23.87419 | -46.69587 | 6625 ft | 277 kts | 178° |
| 2026-04-25 23:34 | -23.89347 | -46.69445 | 6194 ft | 276 kts | 178° |
| 2026-04-25 23:34 | -23.91235 | -46.69256 | 5919 ft | 269 kts | 168° |
| 2026-04-25 23:34 | -23.92895 | -46.68362 | 5902 ft | 268 kts | 140° |
| 2026-04-25 23:34 | -23.93968 | -46.66719 | 5890 ft | 271 kts | 110° |
| 2026-04-25 23:35 | -23.94222 | -46.64674 | 5888 ft | 276 kts | 82° |
| 2026-04-25 23:35 | -23.93597 | -46.62729 | 5894 ft | 277 kts | 55° |
| 2026-04-25 23:35 | -23.92232 | -46.61303 | 5895 ft | 272 kts | 26° |
| 2026-04-25 23:35 | -23.90451 | -46.60741 | 5901 ft | 266 kts | 359° |
| 2026-04-25 23:36 | -23.88622 | -46.60909 | 5906 ft | 264 kts | 343° |
| 2026-04-25 23:36 | -23.87440 | -46.61310 | 5932 ft | 262 kts | 339° |
| 2026-04-25 23:36 | -23.85113 | -46.62015 | 5905 ft | 266 kts | 0° |
| 2026-04-25 23:36 | -23.83370 | -46.61408 | 5941 ft | 269 kts | 35° |
| 2026-04-25 23:37 | -23.82231 | -46.59805 | 5941 ft | 273 kts | 70° |
| 2026-04-25 23:37 | -23.82114 | -46.57765 | 5946 ft | 273 kts | 106° |
| 2026-04-25 23:37 | -23.82677 | -46.55774 | 5554 ft | 280 kts | 95° |
| 2026-04-25 23:37 | -23.82305 | -46.53762 | 5321 ft | 266 kts | 57° |
| 2026-04-25 23:38 | -23.81034 | -46.52489 | 5268 ft | 242 kts | 18° |
| 2026-04-25 23:38 | -23.79491 | -46.52409 | 5256 ft | 213 kts | 336° |
| 2026-04-25 23:38 | -23.78456 | -46.53362 | 5245 ft | 187 kts | 304° |
| 2026-04-25 23:38 | -23.77655 | -46.54447 | 5121 ft | 183 kts | 311° |
| 2026-04-25 23:39 | -23.76740 | -46.55423 | 5031 ft | 183 kts | 317° |
| 2026-04-25 23:39 | -23.75777 | -46.56287 | 4887 ft | 176 kts | 321° |
| 2026-04-25 23:39 | -23.74811 | -46.57064 | 4819 ft | 168 kts | 323° |
| 2026-04-25 23:39 | -23.73859 | -46.57783 | 4670 ft | 165 kts | 324° |
| 2026-04-25 23:40 | -23.72910 | -46.58474 | 4561 ft | 163 kts | 325° |
| 2026-04-25 23:40 | -23.72281 | -46.58924 | 4489 ft | 164 kts | 325° |
| 2026-04-25 23:40 | -23.71340 | -46.59590 | 4430 ft | 159 kts | 325° |
| 2026-04-25 23:40 | -23.70122 | -46.60453 | 4212 ft | 154 kts | 325° |
| 2026-04-25 23:41 | -23.69231 | -46.61092 | 3959 ft | 152 kts | 326° |
| 2026-04-25 23:41 | -23.68352 | -46.61687 | 3788 ft | 142 kts | 324° |
| 2026-04-25 23:41 | -23.67560 | -46.62268 | 3639 ft | 134 kts | 325° |
| 2026-04-25 23:41 | -23.66735 | -46.62824 | 3525 ft | 156 kts | 327° |
| 2026-04-25 23:42 | -23.65735 | -46.63507 | 3453 ft | 170 kts | 326° |
| 2026-04-25 23:42 | -23.64780 | -46.64177 | 3125 ft | 155 kts | 326° |
| 2026-04-25 23:42 | -23.64197 | -46.64578 | 2914 ft | 143 kts | 328° |
| 2026-04-25 23:42 | -23.63408 | -46.65130 | 2675 ft | 128 kts | 327° |
| 2026-04-25 23:43 | -23.62782 | -46.65567 | 2624 ft | 76 kts | 327° |
| 2026-04-25 23:43 | -23.62308 | -46.65898 | 2605 ft | 49 kts | 327° |
| 2026-04-25 23:43 | -23.62197 | -46.65999 | 2602 ft | 14 kts | 283° |
| 2026-04-25 23:43 | -23.62224 | -46.66040 | 2602 ft | 9 kts | 204° |
| 2026-04-25 23:44 | -23.62228 | -46.66041 | 2602 ft | 0 kts | 198° |
| 2026-04-25 23:45 | -23.62241 | -46.66044 | 2602 ft | 4 kts | 182° |
| 2026-04-25 23:45 | -23.62275 | -46.66025 | 2604 ft | 8 kts | 148° |
| 2026-04-25 23:45 | -23.62336 | -46.65983 | 2606 ft | 12 kts | 147° |
| 2026-04-25 23:46 | -23.62408 | -46.65933 | 2608 ft | 12 kts | 148° |
| 2026-04-25 23:46 | -23.62478 | -46.65884 | 2611 ft | 12 kts | 147° |
| 2026-04-25 23:46 | -23.62510 | -46.65886 | 2612 ft | 2 kts | 239° |
| 2026-04-25 23:46 | -23.62520 | -46.65903 | 2612 ft | 6 kts | 238° |
| 2026-04-25 23:47 | -23.62540 | -46.65937 | 2612 ft | 0 kts | 236° |
| 2026-04-25 23:47 | -23.62542 | -46.65940 | 2612 ft | 2 kts | 237° |
| 2026-04-25 23:47 | -23.62543 | -46.65941 | 2612 ft | 0 kts | 237° |